sensor_id;sensor_type;location;lat;lon;timestamp;pressure;altitude;pressure_sealevel;temperature;humidity
62122;BME280;48108;47.532;19.084;2023-05-02T03:55:17;100508.41;;;10.43;87.49
62122;BME280;48108;47.532;19.084;2023-05-02T03:58:21;100509.09;;;10.46;89.09
62122;BME280;48108;47.532;19.084;2023-05-02T04:01:25;100513.62;;;10.45;88.61
62122;BME280;48108;47.532;19.084;2023-05-02T04:04:28;100515.63;;;10.51;88.11
62122;BME280;48108;47.532;19.084;2023-05-02T04:07:31;100515.44;;;10.53;89.57
62122;BME280;48108;47.532;19.084;2023-05-02T04:10:34;100520.47;;;10.56;87.60
62122;BME280;48108;47.532;19.084;2023-05-02T04:13:38;100523.31;;;10.62;88.06
62122;BME280;48108;47.532;19.084;2023-05-02T04:16:41;100527.19;;;10.68;88.26
62122;BME280;48108;47.532;19.084;2023-05-02T04:19:44;100528.34;;;10.65;86.96
62122;BME280;48108;47.532;19.084;2023-05-02T04:22:47;100523.28;;;10.71;88.08
62122;BME280;48108;47.532;19.084;2023-05-02T04:25:52;100526.00;;;10.71;87.05
62122;BME280;48108;47.532;19.084;2023-05-02T04:28:56;100527.47;;;10.73;85.25
62122;BME280;48108;47.532;19.084;2023-05-02T04:31:58;100526.44;;;10.82;84.98
62122;BME280;48108;47.532;19.084;2023-05-02T04:35:02;100528.69;;;11.02;82.76
62122;BME280;48108;47.532;19.084;2023-05-02T04:38:05;100532.78;;;11.21;82.97
62122;BME280;48108;47.532;19.084;2023-05-02T04:41:14;100537.88;;;11.39;81.24
62122;BME280;48108;47.532;19.084;2023-05-02T04:44:18;100531.16;;;11.57;77.93
62122;BME280;48108;47.532;19.084;2023-05-02T04:47:21;100534.56;;;11.74;76.35
62122;BME280;48108;47.532;19.084;2023-05-02T04:50:25;100537.75;;;11.78;77.37
62122;BME280;48108;47.532;19.084;2023-05-02T04:53:30;100542.78;;;11.81;75.83
62122;BME280;48108;47.532;19.084;2023-05-02T04:56:32;100554.22;;;11.83;76.13
62122;BME280;48108;47.532;19.084;2023-05-02T04:59:36;100547.16;;;11.82;74.89
62122;BME280;48108;47.532;19.084;2023-05-02T05:02:40;100553.91;;;11.86;74.71
62122;BME280;48108;47.532;19.084;2023-05-02T05:05:43;100539.78;;;11.99;75.53
62122;BME280;48108;47.532;19.084;2023-05-02T05:08:47;100548.66;;;12.22;73.55
62122;BME280;48108;47.532;19.084;2023-05-02T05:11:50;100546.63;;;12.39;72.69
62122;BME280;48108;47.532;19.084;2023-05-02T05:14:53;100541.87;;;12.56;71.40
62122;BME280;48108;47.532;19.084;2023-05-02T05:17:56;100549.22;;;12.77;72.42
62122;BME280;48108;47.532;19.084;2023-05-02T05:21:00;100546.22;;;12.87;70.02
62122;BME280;48108;47.532;19.084;2023-05-02T05:24:04;100547.31;;;12.92;71.19
62122;BME280;48108;47.532;19.084;2023-05-02T05:27:07;100555.53;;;12.99;69.88
62122;BME280;48108;47.532;19.084;2023-05-02T05:30:11;100552.69;;;13.22;69.53
62122;BME280;48108;47.532;19.084;2023-05-02T05:33:15;100555.44;;;13.44;68.22
62122;BME280;48108;47.532;19.084;2023-05-02T05:36:18;100557.88;;;13.60;66.88
62122;BME280;48108;47.532;19.084;2023-05-02T05:39:25;100558.00;;;13.73;66.61
62122;BME280;48108;47.532;19.084;2023-05-02T05:42:29;100564.06;;;13.97;65.73
62122;BME280;48108;47.532;19.084;2023-05-02T05:45:32;100566.47;;;14.13;64.90
62122;BME280;48108;47.532;19.084;2023-05-02T05:48:36;100568.16;;;14.14;63.90
62122;BME280;48108;47.532;19.084;2023-05-02T05:51:39;100568.47;;;14.33;64.66
62122;BME280;48108;47.532;19.084;2023-05-02T05:54:42;100576.06;;;14.44;64.22
62122;BME280;48108;47.532;19.084;2023-05-02T05:57:45;100579.91;;;14.56;63.83
62122;BME280;48108;47.532;19.084;2023-05-02T06:00:48;100585.69;;;14.74;63.56
62122;BME280;48108;47.532;19.084;2023-05-02T06:03:52;100577.03;;;14.99;63.38
62122;BME280;48108;47.532;19.084;2023-05-02T06:06:55;100592.16;;;15.22;62.43
62122;BME280;48108;47.532;19.084;2023-05-02T06:09:58;100580.06;;;15.24;61.38
62122;BME280;48108;47.532;19.084;2023-05-02T06:13:02;100580.06;;;15.31;62.06
62122;BME280;48108;47.532;19.084;2023-05-02T06:16:05;100578.91;;;15.67;61.39
62122;BME280;48108;47.532;19.084;2023-05-02T06:19:08;100576.44;;;15.78;60.07
62122;BME280;48108;47.532;19.084;2023-05-02T06:22:13;100581.69;;;16.06;60.07
62122;BME280;48108;47.532;19.084;2023-05-02T06:25:16;100578.34;;;16.18;57.31
62122;BME280;48108;47.532;19.084;2023-05-02T06:28:19;100586.06;;;16.14;57.80
62122;BME280;48108;47.532;19.084;2023-05-02T06:31:22;100579.59;;;16.15;57.81
62122;BME280;48108;47.532;19.084;2023-05-02T06:34:27;100580.19;;;16.50;55.94
62122;BME280;48108;47.532;19.084;2023-05-02T06:37:32;100578.50;;;16.49;55.97
62122;BME280;48108;47.532;19.084;2023-05-02T06:40:36;100580.16;;;16.77;55.77
62122;BME280;48108;47.532;19.084;2023-05-02T06:43:40;100583.88;;;16.89;54.75
62122;BME280;48108;47.532;19.084;2023-05-02T06:46:43;100575.69;;;17.03;55.37
62122;BME280;48108;47.532;19.084;2023-05-02T06:49:46;100577.84;;;17.26;53.97
62122;BME280;48108;47.532;19.084;2023-05-02T06:52:49;100580.66;;;17.12;53.77
62122;BME280;48108;47.532;19.084;2023-05-02T06:55:52;100584.91;;;17.40;53.75
62122;BME280;48108;47.532;19.084;2023-05-02T06:58:55;100583.53;;;17.62;53.73
62122;BME280;48108;47.532;19.084;2023-05-02T07:01:58;100575.50;;;17.74;52.73
62122;BME280;48108;47.532;19.084;2023-05-02T07:05:03;100579.47;;;17.72;51.98
62122;BME280;48108;47.532;19.084;2023-05-02T07:08:06;100575.59;;;17.61;52.41
62122;BME280;48108;47.532;19.084;2023-05-02T07:11:10;100571.91;;;17.80;52.30
62122;BME280;48108;47.532;19.084;2023-05-02T07:14:13;100582.28;;;17.97;51.07
62122;BME280;48108;47.532;19.084;2023-05-02T07:17:16;100580.50;;;18.09;50.46
62122;BME280;48108;47.532;19.084;2023-05-02T07:20:19;100581.09;;;18.36;51.43
62122;BME280;48108;47.532;19.084;2023-05-02T07:23:22;100571.88;;;18.37;49.76
62122;BME280;48108;47.532;19.084;2023-05-02T07:26:25;100570.88;;;18.75;49.00
62122;BME280;48108;47.532;19.084;2023-05-02T07:29:30;100570.56;;;18.83;49.55
62122;BME280;48108;47.532;19.084;2023-05-02T07:32:32;100568.34;;;18.92;47.48
62122;BME280;48108;47.532;19.084;2023-05-02T07:35:36;100571.53;;;19.25;47.79
62122;BME280;48108;47.532;19.084;2023-05-02T07:38:38;100574.97;;;19.33;46.67
62122;BME280;48108;47.532;19.084;2023-05-02T07:41:42;100577.69;;;19.51;46.77
62122;BME280;48108;47.532;19.084;2023-05-02T07:44:45;100576.88;;;19.32;46.98
62122;BME280;48108;47.532;19.084;2023-05-02T07:47:48;100584.84;;;19.34;47.11
62122;BME280;48108;47.532;19.084;2023-05-02T07:50:50;100589.87;;;19.67;46.58
62122;BME280;48108;47.532;19.084;2023-05-02T07:53:53;100585.84;;;19.39;47.09
62122;BME280;48108;47.532;19.084;2023-05-02T07:56:59;100595.03;;;19.08;47.53
62122;BME280;48108;47.532;19.084;2023-05-02T08:00:05;100579.97;;;18.87;48.54
62122;BME280;48108;47.532;19.084;2023-05-02T08:03:14;100582.75;;;19.17;48.52
62122;BME280;48108;47.532;19.084;2023-05-02T08:06:17;100581.69;;;19.18;48.11
62122;BME280;48108;47.532;19.084;2023-05-02T08:09:20;100585.87;;;19.51;47.39
62122;BME280;48108;47.532;19.084;2023-05-02T08:12:23;100591.12;;;19.64;47.06
62122;BME280;48108;47.532;19.084;2023-05-02T08:15:26;100582.78;;;19.78;45.96
62122;BME280;48108;47.532;19.084;2023-05-02T08:18:29;100582.59;;;20.03;45.65
62122;BME280;48108;47.532;19.084;2023-05-02T08:21:32;100586.16;;;20.03;45.65
62122;BME280;48108;47.532;19.084;2023-05-02T08:24:35;100585.91;;;19.93;45.72
62122;BME280;48108;47.532;19.084;2023-05-02T08:27:38;100581.28;;;20.05;46.15
62122;BME280;48108;47.532;19.084;2023-05-02T08:30:41;100590.47;;;20.34;44.99
62122;BME280;48108;47.532;19.084;2023-05-02T08:33:44;100580.84;;;20.44;44.54
62122;BME280;48108;47.532;19.084;2023-05-02T08:36:47;100577.53;;;20.77;43.74
62122;BME280;48108;47.532;19.084;2023-05-02T08:39:50;100572.00;;;21.41;43.63
62122;BME280;48108;47.532;19.084;2023-05-02T08:42:53;100576.66;;;21.86;42.30
62122;BME280;48108;47.532;19.084;2023-05-02T08:45:58;100574.44;;;21.54;41.63
62122;BME280;48108;47.532;19.084;2023-05-02T08:49:02;100566.44;;;21.24;42.16
62122;BME280;48108;47.532;19.084;2023-05-02T08:52:07;100568.66;;;20.98;42.83
62122;BME280;48108;47.532;19.084;2023-05-02T08:55:11;100561.47;;;20.69;43.71
62122;BME280;48108;47.532;19.084;2023-05-02T08:58:14;100564.53;;;20.84;43.84
62122;BME280;48108;47.532;19.084;2023-05-02T09:01:22;100564.38;;;20.91;43.44
62122;BME280;48108;47.532;19.084;2023-05-02T09:04:30;100567.88;;;21.55;42.32
62122;BME280;48108;47.532;19.084;2023-05-02T09:07:46;100560.91;;;21.64;42.10
62122;BME280;48108;47.532;19.084;2023-05-02T09:10:49;100553.19;;;21.61;41.80
62122;BME280;48108;47.532;19.084;2023-05-02T09:13:54;100546.81;;;21.72;42.73
62122;BME280;48108;47.532;19.084;2023-05-02T09:17:00;100546.34;;;21.92;41.43
62122;BME280;48108;47.532;19.084;2023-05-02T09:20:04;100541.94;;;22.25;40.72
62122;BME280;48108;47.532;19.084;2023-05-02T09:23:07;100538.22;;;22.14;40.86
62122;BME280;48108;47.532;19.084;2023-05-02T09:26:15;100540.62;;;22.28;39.19
62122;BME280;48108;47.532;19.084;2023-05-02T09:29:19;100539.28;;;22.69;39.39
62122;BME280;48108;47.532;19.084;2023-05-02T09:32:44;100544.84;;;22.74;39.54
62122;BME280;48108;47.532;19.084;2023-05-02T09:35:52;100536.16;;;22.82;37.59
62122;BME280;48108;47.532;19.084;2023-05-02T09:39:08;100544.75;;;22.69;37.85
62122;BME280;48108;47.532;19.084;2023-05-02T09:42:11;100545.28;;;23.05;37.52
62122;BME280;48108;47.532;19.084;2023-05-02T09:45:25;100549.31;;;23.51;38.08
62122;BME280;48108;47.532;19.084;2023-05-02T09:48:28;100543.47;;;23.43;36.36
62122;BME280;48108;47.532;19.084;2023-05-02T09:51:32;100541.19;;;23.62;37.36
62122;BME280;48108;47.532;19.084;2023-05-02T09:54:36;100537.41;;;24.00;37.81
62122;BME280;48108;47.532;19.084;2023-05-02T09:57:39;100529.75;;;24.02;35.41
62122;BME280;48108;47.532;19.084;2023-05-02T10:00:44;100534.81;;;24.20;35.61
62122;BME280;48108;47.532;19.084;2023-05-02T10:03:48;100531.16;;;24.47;35.15
62122;BME280;48108;47.532;19.084;2023-05-02T10:06:52;100541.34;;;24.09;35.58
62122;BME280;48108;47.532;19.084;2023-05-02T10:09:57;100517.75;;;24.18;37.17
62122;BME280;48108;47.532;19.084;2023-05-02T10:13:02;100527.53;;;24.04;35.83
62122;BME280;48108;47.532;19.084;2023-05-02T10:16:06;100527.06;;;24.50;35.83
62122;BME280;48108;47.532;19.084;2023-05-02T10:19:11;100516.69;;;24.67;35.03
62122;BME280;48108;47.532;19.084;2023-05-02T10:22:18;100507.87;;;24.70;34.57
62122;BME280;48108;47.532;19.084;2023-05-02T10:25:20;100514.34;;;25.01;34.95
62122;BME280;48108;47.532;19.084;2023-05-02T10:28:25;100511.28;;;24.93;34.47
62122;BME280;48108;47.532;19.084;2023-05-02T10:31:32;100521.59;;;24.55;36.02
62122;BME280;48108;47.532;19.084;2023-05-02T10:34:37;100510.28;;;24.51;33.79
62122;BME280;48108;47.532;19.084;2023-05-02T10:37:41;100509.81;;;24.70;34.08
62122;BME280;48108;47.532;19.084;2023-05-02T10:41:00;100508.06;;;25.21;34.25
62122;BME280;48108;47.532;19.084;2023-05-02T10:44:03;100502.88;;;25.50;34.85
62122;BME280;48108;47.532;19.084;2023-05-02T10:47:22;100515.06;;;25.60;33.27
62122;BME280;48108;47.532;19.084;2023-05-02T10:50:41;100520.03;;;26.04;33.88
62122;BME280;48108;47.532;19.084;2023-05-02T10:53:45;100501.56;;;25.89;33.33
62122;BME280;48108;47.532;19.084;2023-05-02T11:00:20;100502.31;;;27.16;31.76
62122;BME280;48108;47.532;19.084;2023-05-02T11:03:59;100499.78;;;28.27;31.79
62122;BME280;48108;47.532;19.084;2023-05-02T11:13:47;100501.94;;;27.67;30.84
62122;BME280;48108;47.532;19.084;2023-05-02T11:26:21;100486.91;;;26.99;31.99
62122;BME280;48108;47.532;19.084;2023-05-02T11:29:56;100490.19;;;26.31;32.63
62122;BME280;48108;47.532;19.084;2023-05-02T11:36:08;100485.94;;;26.69;32.61
62122;BME280;48108;47.532;19.084;2023-05-02T11:39:18;100473.47;;;28.00;31.05
62122;BME280;48108;47.532;19.084;2023-05-02T11:42:32;100468.47;;;28.75;29.73
62122;BME280;48108;47.532;19.084;2023-05-02T11:45:36;100465.09;;;30.05;28.11
62122;BME280;48108;47.532;19.084;2023-05-02T11:48:40;100471.34;;;30.43;27.78
62122;BME280;48108;47.532;19.084;2023-05-02T11:51:43;100468.03;;;29.29;28.24
62122;BME280;48108;47.532;19.084;2023-05-02T11:54:47;100465.13;;;28.06;30.24
62122;BME280;48108;47.532;19.084;2023-05-02T11:57:51;100458.47;;;29.54;27.78
62122;BME280;48108;47.532;19.084;2023-05-02T12:00:54;100457.50;;;28.88;28.87
62122;BME280;48108;47.532;19.084;2023-05-02T12:04:05;100462.22;;;27.13;30.76
62122;BME280;48108;47.532;19.084;2023-05-02T12:07:09;100458.50;;;26.13;32.79
62122;BME280;48108;47.532;19.084;2023-05-02T12:10:14;100452.88;;;27.09;31.98
62122;BME280;48108;47.532;19.084;2023-05-02T12:13:17;100453.00;;;28.92;29.19
62122;BME280;48108;47.532;19.084;2023-05-02T12:16:21;100446.22;;;30.21;27.28
62122;BME280;48108;47.532;19.084;2023-05-02T12:19:24;100451.16;;;30.79;27.33
62122;BME280;48108;47.532;19.084;2023-05-02T12:22:27;100438.56;;;31.18;26.52
62122;BME280;48108;47.532;19.084;2023-05-02T12:25:35;100435.09;;;29.42;27.73
62122;BME280;48108;47.532;19.084;2023-05-02T12:28:50;100440.25;;;28.00;29.10
62122;BME280;48108;47.532;19.084;2023-05-02T12:31:52;100432.91;;;27.56;29.45
62122;BME280;48108;47.532;19.084;2023-05-02T12:34:57;100438.62;;;27.99;28.13
62122;BME280;48108;47.532;19.084;2023-05-02T12:38:08;100434.03;;;30.86;25.66
62122;BME280;48108;47.532;19.084;2023-05-02T12:41:14;100439.91;;;30.70;24.71
62122;BME280;48108;47.532;19.084;2023-05-02T12:44:34;100434.69;;;29.67;26.11
62122;BME280;48108;47.532;19.084;2023-05-02T12:47:43;100432.25;;;31.40;23.97
62122;BME280;48108;47.532;19.084;2023-05-02T12:50:48;100425.44;;;30.60;23.77
62122;BME280;48108;47.532;19.084;2023-05-02T12:53:51;100427.03;;;29.78;25.28
62122;BME280;48108;47.532;19.084;2023-05-02T12:56:54;100434.94;;;28.76;26.27
62122;BME280;48108;47.532;19.084;2023-05-02T12:59:57;100425.00;;;28.51;26.14
62122;BME280;48108;47.532;19.084;2023-05-02T13:03:01;100432.09;;;27.56;27.52
62122;BME280;48108;47.532;19.084;2023-05-02T13:06:05;100429.66;;;27.05;28.10
62122;BME280;48108;47.532;19.084;2023-05-02T13:09:08;100423.81;;;26.67;28.58
62122;BME280;48108;47.532;19.084;2023-05-02T13:12:11;100423.13;;;26.26;28.77
62122;BME280;48108;47.532;19.084;2023-05-02T13:15:14;100427.63;;;25.91;29.95
62122;BME280;48108;47.532;19.084;2023-05-02T13:18:17;100418.00;;;25.37;31.80
62122;BME280;48108;47.532;19.084;2023-05-02T13:21:20;100413.78;;;24.94;31.15
62122;BME280;48108;47.532;19.084;2023-05-02T13:24:23;100419.47;;;24.51;32.76
62122;BME280;48108;47.532;19.084;2023-05-02T13:27:26;100412.44;;;24.28;33.63
62122;BME280;48108;47.532;19.084;2023-05-02T13:30:30;100415.94;;;24.13;33.53
62122;BME280;48108;47.532;19.084;2023-05-02T13:33:33;100420.56;;;24.03;33.77
62122;BME280;48108;47.532;19.084;2023-05-02T13:36:39;100423.44;;;23.81;34.20
62122;BME280;48108;47.532;19.084;2023-05-02T13:39:48;100406.06;;;23.70;34.63
62122;BME280;48108;47.532;19.084;2023-05-02T13:42:51;100409.50;;;23.55;34.42
62122;BME280;48108;47.532;19.084;2023-05-02T13:45:53;100409.78;;;23.59;35.18
62122;BME280;48108;47.532;19.084;2023-05-02T13:48:57;100413.87;;;23.56;34.75
62122;BME280;48108;47.532;19.084;2023-05-02T13:51:59;100413.50;;;23.74;34.93
62122;BME280;48108;47.532;19.084;2023-05-02T13:55:03;100414.75;;;23.62;34.63
62122;BME280;48108;47.532;19.084;2023-05-02T13:58:06;100418.03;;;23.59;35.20
62122;BME280;48108;47.532;19.084;2023-05-02T14:01:09;100412.84;;;23.30;35.46
62122;BME280;48108;47.532;19.084;2023-05-02T14:04:12;100409.09;;;23.41;35.26
62122;BME280;48108;47.532;19.084;2023-05-02T14:07:15;100405.38;;;23.58;35.01
62122;BME280;48108;47.532;19.084;2023-05-02T14:10:18;100416.16;;;23.64;35.05
62122;BME280;48108;47.532;19.084;2023-05-02T14:13:21;100412.31;;;23.33;35.37
62122;BME280;48108;47.532;19.084;2023-05-02T14:16:24;100415.75;;;23.18;35.80
62122;BME280;48108;47.532;19.084;2023-05-02T14:19:27;100413.94;;;23.02;37.13
62122;BME280;48108;47.532;19.084;2023-05-02T14:22:30;100411.78;;;23.04;38.81
62122;BME280;48108;47.532;19.084;2023-05-02T14:25:33;100420.06;;;22.87;39.97
62122;BME280;48108;47.532;19.084;2023-05-02T14:28:37;100419.66;;;22.95;41.00
62122;BME280;48108;47.532;19.084;2023-05-02T14:31:47;100416.28;;;23.15;40.11
62122;BME280;48108;47.532;19.084;2023-05-02T14:34:50;100410.72;;;23.05;38.41
62122;BME280;48108;47.532;19.084;2023-05-02T14:37:53;100415.88;;;23.28;36.54
62122;BME280;48108;47.532;19.084;2023-05-02T14:40:56;100418.91;;;23.32;34.85
62122;BME280;48108;47.532;19.084;2023-05-02T14:43:58;100412.12;;;23.45;34.17
62122;BME280;48108;47.532;19.084;2023-05-02T14:47:01;100411.78;;;23.36;34.33
62122;BME280;48108;47.532;19.084;2023-05-02T14:50:05;100412.06;;;23.35;35.18
62122;BME280;48108;47.532;19.084;2023-05-02T14:53:08;100416.69;;;23.29;35.18
62122;BME280;48108;47.532;19.084;2023-05-02T14:56:12;100415.47;;;23.15;36.21
62122;BME280;48108;47.532;19.084;2023-05-02T14:59:17;100422.44;;;23.27;35.15
62122;BME280;48108;47.532;19.084;2023-05-02T15:02:20;100416.87;;;23.17;36.11
62122;BME280;48108;47.532;19.084;2023-05-02T15:05:23;100412.88;;;23.03;35.64
62122;BME280;48108;47.532;19.084;2023-05-02T15:08:26;100411.78;;;23.04;36.39
62122;BME280;48108;47.532;19.084;2023-05-02T15:11:29;100417.38;;;23.14;35.81
62122;BME280;48108;47.532;19.084;2023-05-02T15:14:32;100415.34;;;23.04;35.67
62122;BME280;48108;47.532;19.084;2023-05-02T15:17:35;100413.22;;;22.84;35.55
62122;BME280;48108;47.532;19.084;2023-05-02T15:20:38;100416.66;;;22.75;36.16
62122;BME280;48108;47.532;19.084;2023-05-02T15:23:41;100429.44;;;22.64;37.04
62122;BME280;48108;47.532;19.084;2023-05-02T15:26:44;100421.91;;;22.54;37.04
62122;BME280;48108;47.532;19.084;2023-05-02T15:29:47;100419.22;;;22.59;37.00
62122;BME280;48108;47.532;19.084;2023-05-02T15:32:50;100410.91;;;22.76;36.90
62122;BME280;48108;47.532;19.084;2023-05-02T15:35:55;100413.25;;;22.90;37.14
62122;BME280;48108;47.532;19.084;2023-05-02T15:38:59;100412.97;;;23.13;36.03
62122;BME280;48108;47.532;19.084;2023-05-02T15:42:03;100406.47;;;23.24;35.39
62122;BME280;48108;47.532;19.084;2023-05-02T15:45:11;100413.72;;;23.36;35.46
62122;BME280;48108;47.532;19.084;2023-05-02T15:48:18;100411.03;;;23.41;35.24
62122;BME280;48108;47.532;19.084;2023-05-02T15:51:20;100407.22;;;23.47;35.61
62122;BME280;48108;47.532;19.084;2023-05-02T15:54:24;100410.37;;;23.28;36.46
62122;BME280;48108;47.532;19.084;2023-05-02T15:57:27;100399.37;;;23.01;36.11
